createdAt,value
2023-05-23T00:00:38.055Z,4.90
2023-05-23T00:03:06.245Z,4.72
2023-05-23T00:05:35.088Z,4.82
2023-05-23T00:08:02.622Z,4.65
2023-05-23T00:10:30.707Z,4.05
2023-05-23T00:12:58.224Z,4.62
2023-05-23T00:15:25.898Z,4.53
2023-05-23T00:17:54.160Z,4.70
2023-05-23T00:20:21.808Z,4.60
2023-05-23T00:22:49.920Z,4.53
2023-05-23T00:25:17.754Z,4.70
2023-05-23T00:27:45.758Z,5.37
2023-05-23T00:30:13.688Z,5.43
2023-05-23T00:32:41.586Z,4.80
2023-05-23T00:35:11.532Z,5.50
2023-05-23T00:37:39.013Z,4.72
2023-05-23T00:40:08.442Z,4.78
2023-05-23T00:42:35.932Z,4.72
2023-05-23T00:45:03.678Z,6.22
2023-05-23T00:47:32.194Z,5.07
2023-05-23T00:49:59.865Z,5.00
2023-05-23T00:52:28.427Z,5.30
2023-05-23T00:55:00.526Z,5.12
2023-05-23T00:57:28.439Z,4.75
2023-05-23T00:59:56.147Z,4.93
2023-05-23T01:02:23.903Z,5.70
2023-05-23T01:04:54.616Z,4.68
2023-05-23T01:07:22.410Z,4.35
2023-05-23T01:09:50.262Z,4.60
2023-05-23T01:12:27.257Z,5.40
2023-05-23T01:14:58.333Z,4.70
2023-05-23T01:17:42.115Z,4.62
2023-05-23T01:20:12.862Z,4.78
2023-05-23T01:23:11.813Z,4.72
2023-05-23T01:26:11.983Z,4.45
2023-05-23T01:28:48.003Z,5.30
2023-05-23T01:31:17.105Z,5.18
2023-05-23T01:33:45.313Z,6.40
2023-05-23T01:36:14.984Z,6.40
2023-05-23T01:38:43.092Z,6.62
2023-05-23T01:41:10.579Z,7.32
2023-05-23T01:43:38.996Z,6.97
2023-05-23T01:46:08.081Z,6.07
2023-05-23T01:48:36.638Z,7.22
2023-05-23T01:51:05.188Z,6.80
2023-05-23T01:53:33.354Z,7.22
2023-05-23T01:56:03.487Z,7.28
2023-05-23T01:58:31.104Z,7.28
2023-05-23T02:00:58.946Z,6.57
2023-05-23T02:03:26.897Z,6.28
2023-05-23T02:05:54.673Z,6.75
2023-05-23T02:08:22.066Z,6.10
2023-05-23T02:10:49.805Z,5.50
2023-05-23T02:13:17.331Z,5.25
2023-05-23T02:15:44.723Z,5.28
2023-05-23T02:18:13.221Z,5.45
2023-05-23T02:20:42.738Z,5.50
2023-05-23T02:23:10.605Z,4.95
2023-05-23T02:25:38.576Z,5.03
2023-05-23T02:28:07.498Z,5.07
2023-05-23T02:30:34.960Z,5.03
2023-05-23T02:33:05.625Z,5.60
2023-05-23T02:35:33.955Z,5.28
2023-05-23T02:38:01.461Z,5.32
2023-05-23T02:40:28.901Z,5.20
2023-05-23T02:42:57.437Z,5.40
2023-05-23T02:45:25.022Z,5.47
2023-05-23T02:47:52.542Z,5.15
2023-05-23T02:50:20.633Z,4.95
2023-05-23T02:52:48.097Z,5.57
2023-05-23T02:55:16.064Z,5.30
2023-05-23T02:57:44.098Z,5.10
2023-05-23T03:00:12.126Z,5.53
2023-05-23T03:02:40.003Z,5.43
2023-05-23T03:05:08.193Z,5.28
2023-05-23T03:07:36.838Z,5.30
2023-05-23T03:10:04.626Z,5.30
2023-05-23T03:12:32.421Z,6.50
2023-05-23T03:15:00.050Z,5.40
2023-05-23T03:17:27.658Z,4.80
2023-05-23T03:19:57.708Z,5.03
2023-05-23T03:22:25.226Z,4.87
2023-05-23T03:24:52.748Z,4.60
2023-05-23T03:27:20.589Z,5.60
2023-05-23T03:29:48.465Z,5.20
2023-05-23T03:32:16.046Z,4.80
2023-05-23T03:34:44.234Z,5.80
2023-05-23T03:37:12.116Z,5.20
2023-05-23T03:39:39.981Z,5.57
2023-05-23T03:42:07.900Z,5.30
2023-05-23T03:44:35.500Z,5.32
2023-05-23T03:47:04.096Z,5.78
2023-05-23T03:49:31.899Z,5.37
2023-05-23T03:51:59.401Z,5.35
2023-05-23T03:54:27.224Z,5.75
2023-05-23T03:56:55.025Z,5.20
2023-05-23T03:59:22.525Z,5.97
2023-05-23T04:01:50.206Z,5.25
2023-05-23T04:04:18.517Z,5.22
2023-05-23T04:06:46.142Z,4.80
2023-05-23T04:09:15.211Z,5.32
2023-05-23T04:11:44.336Z,5.68
2023-05-23T04:14:12.610Z,5.75
2023-05-23T04:16:41.886Z,5.20
2023-05-23T04:19:10.055Z,5.30
2023-05-23T04:21:37.581Z,5.43
2023-05-23T04:24:06.181Z,6.12
2023-05-23T04:26:36.261Z,5.45
2023-05-23T04:29:06.249Z,5.28
2023-05-23T04:31:34.482Z,5.25
2023-05-23T04:34:02.678Z,5.12
2023-05-23T04:36:30.413Z,4.85
2023-05-23T04:38:58.178Z,5.90
2023-05-23T04:41:25.653Z,5.20
2023-05-23T04:43:54.703Z,4.53
2023-05-23T04:46:26.309Z,5.03
2023-05-23T04:48:55.260Z,5.05
2023-05-23T04:51:23.175Z,4.30
2023-05-23T04:53:52.589Z,5.22
2023-05-23T04:56:22.006Z,5.28
2023-05-23T04:58:50.006Z,4.68
2023-05-23T05:01:17.831Z,4.53
2023-05-23T05:03:45.541Z,4.85
2023-05-23T05:06:14.434Z,4.97
2023-05-23T05:08:42.938Z,5.40
2023-05-23T05:11:10.946Z,4.87
2023-05-23T05:13:38.789Z,5.18
2023-05-23T05:16:06.743Z,5.62
2023-05-23T05:18:36.481Z,5.70
2023-05-23T05:21:04.616Z,5.30
2023-05-23T05:23:33.356Z,5.07
2023-05-23T05:26:01.137Z,5.62
2023-05-23T05:28:29.000Z,5.00
2023-05-23T05:30:57.040Z,4.93
2023-05-23T05:33:24.997Z,5.18
2023-05-23T05:35:53.509Z,5.30
2023-05-23T05:38:20.985Z,4.80
2023-05-23T05:40:48.449Z,4.60
2023-05-23T05:43:16.805Z,5.05
2023-05-23T05:45:44.270Z,4.68
2023-05-23T05:48:12.196Z,4.78
2023-05-23T05:50:40.312Z,4.62
2023-05-23T05:53:08.719Z,4.87
2023-05-23T05:55:36.172Z,4.35
2023-05-23T05:58:04.254Z,4.70
2023-05-23T06:00:34.941Z,4.37
2023-05-23T06:03:02.775Z,4.35
2023-05-23T06:05:30.858Z,4.68
2023-05-23T06:07:58.306Z,4.05
2023-05-23T06:10:26.246Z,4.07
2023-05-23T06:12:54.102Z,4.47
2023-05-23T06:15:21.560Z,4.68
2023-05-23T06:17:49.279Z,4.72
2023-05-23T06:20:16.741Z,5.37
2023-05-23T06:22:44.948Z,4.18
2023-05-23T06:25:16.332Z,4.60
2023-05-23T06:27:44.937Z,4.18
2023-05-23T06:30:13.132Z,4.80
2023-05-23T06:32:41.388Z,4.53
2023-05-23T06:35:09.513Z,5.82
2023-05-23T06:37:37.227Z,5.55
2023-05-23T06:40:05.619Z,4.43
2023-05-23T06:42:33.172Z,4.60
2023-05-23T06:45:03.231Z,4.80
2023-05-23T06:47:32.535Z,4.60
2023-05-23T06:49:59.998Z,4.87
2023-05-23T06:52:27.724Z,5.03
2023-05-23T06:54:55.616Z,4.97
2023-05-23T06:57:23.964Z,5.10
2023-05-23T06:59:51.979Z,4.50
2023-05-23T07:02:19.422Z,4.87
2023-05-23T07:04:46.980Z,5.00
2023-05-23T07:07:15.720Z,4.55
2023-05-23T07:09:44.328Z,4.90
2023-05-23T07:12:12.207Z,4.70
2023-05-23T07:14:40.665Z,4.43
2023-05-23T07:17:08.198Z,4.47
2023-05-23T07:19:35.786Z,4.40
2023-05-23T07:22:03.640Z,5.95
2023-05-23T07:24:31.670Z,5.07
2023-05-23T07:26:59.308Z,4.87
2023-05-23T07:29:27.168Z,5.25
2023-05-23T07:31:54.863Z,4.87
2023-05-23T07:34:22.728Z,5.28
2023-05-23T07:36:51.028Z,5.20
2023-05-23T07:39:24.394Z,5.70
2023-05-23T07:41:52.578Z,5.25
2023-05-23T07:44:22.444Z,5.43
2023-05-23T07:46:53.030Z,5.30
2023-05-23T07:49:21.040Z,5.43
2023-05-23T07:51:48.473Z,6.40
2023-05-23T07:54:16.758Z,5.40
2023-05-23T07:56:45.219Z,6.25
2023-05-23T07:59:13.570Z,5.72
2023-05-23T08:01:42.416Z,5.32
2023-05-23T08:04:11.162Z,6.10
2023-05-23T08:06:45.636Z,6.50
2023-05-23T08:09:20.674Z,5.22
2023-05-23T08:11:49.092Z,6.07
2023-05-23T08:14:16.575Z,5.37
2023-05-23T08:16:44.802Z,6.37
2023-05-23T08:19:12.823Z,7.53
2023-05-23T08:21:40.519Z,6.37
2023-05-23T08:24:08.236Z,6.07
2023-05-23T08:26:36.539Z,6.03
2023-05-23T08:29:04.120Z,6.20
2023-05-23T08:31:32.283Z,6.62
2023-05-23T08:34:00.511Z,6.22
2023-05-23T08:36:29.529Z,6.22
2023-05-23T08:38:57.302Z,6.45
2023-05-23T08:41:25.412Z,5.85
2023-05-23T08:43:53.044Z,6.80
2023-05-23T08:46:22.892Z,6.32
2023-05-23T08:48:55.004Z,6.22
2023-05-23T08:51:25.883Z,5.70
2023-05-23T08:53:54.039Z,6.28
2023-05-23T08:56:24.769Z,6.18
2023-05-23T08:58:53.278Z,5.70
2023-05-23T09:01:23.097Z,5.72
2023-05-23T09:03:51.506Z,5.05
2023-05-23T09:06:21.871Z,5.62
2023-05-23T09:08:49.551Z,5.05
2023-05-23T09:11:17.528Z,5.32
2023-05-23T09:13:45.916Z,4.70
2023-05-23T09:16:17.922Z,4.95
2023-05-23T09:18:46.197Z,5.10
2023-05-23T09:21:14.218Z,5.18
2023-05-23T09:23:43.799Z,5.28
2023-05-23T09:26:13.428Z,4.57
2023-05-23T09:28:43.450Z,4.57
2023-05-23T09:31:11.230Z,4.93
2023-05-23T09:33:52.692Z,5.43
2023-05-23T09:36:20.474Z,6.22
2023-05-23T09:38:49.038Z,6.10
2023-05-23T09:41:16.606Z,6.60
2023-05-23T09:43:55.024Z,5.93
2023-05-23T09:46:22.971Z,6.03
2023-05-23T09:48:51.742Z,6.35
2023-05-23T09:51:23.299Z,6.50
2023-05-23T09:53:52.360Z,7.03
2023-05-23T09:56:20.201Z,5.57
2023-05-23T09:58:49.062Z,5.70
2023-05-23T10:01:17.164Z,5.85
2023-05-23T10:03:51.824Z,5.97
2023-05-23T10:06:31.558Z,5.30
2023-05-23T10:09:04.762Z,5.30
2023-05-23T10:11:35.116Z,6.00
2023-05-23T10:14:05.698Z,5.22
2023-05-23T10:16:56.630Z,4.53
2023-05-23T10:19:26.962Z,5.47
2023-05-23T10:21:59.669Z,5.05
2023-05-23T10:24:27.983Z,4.87
2023-05-23T10:26:55.946Z,5.00
2023-05-23T10:29:23.715Z,5.07
2023-05-23T10:31:52.956Z,4.95
2023-05-23T10:34:25.895Z,5.43
2023-05-23T10:36:57.414Z,5.03
2023-05-23T10:39:41.836Z,5.12
2023-05-23T10:42:17.904Z,4.82
2023-05-23T10:44:45.420Z,4.90
2023-05-23T10:47:13.317Z,4.78
2023-05-23T10:49:45.424Z,5.00
2023-05-23T10:52:15.220Z,5.47
2023-05-23T10:54:51.628Z,6.15
2023-05-23T10:57:21.320Z,5.03
2023-05-23T10:59:55.156Z,5.25
2023-05-23T11:02:29.356Z,5.68
2023-05-23T11:05:15.725Z,5.07
2023-05-23T11:07:43.406Z,5.00
2023-05-23T11:10:12.096Z,5.00
2023-05-23T11:12:44.434Z,4.70
2023-05-23T11:15:18.409Z,5.50
2023-05-23T11:17:57.557Z,4.60
2023-05-23T11:20:27.614Z,4.50
2023-05-23T11:23:00.444Z,4.03
2023-05-23T11:25:50.060Z,4.22
2023-05-23T11:28:19.592Z,4.00
2023-05-23T11:30:51.180Z,3.83
2023-05-23T11:33:18.994Z,3.65
2023-05-23T11:35:47.893Z,4.18
2023-05-23T11:38:18.532Z,4.53
2023-05-23T11:40:46.837Z,3.97
2023-05-23T11:43:16.751Z,4.50
2023-05-23T11:45:46.991Z,3.92
2023-05-23T11:48:16.827Z,4.53
2023-05-23T11:50:53.103Z,4.00
2023-05-23T11:53:23.074Z,4.10
2023-05-23T11:55:55.003Z,4.30
2023-05-23T11:58:26.464Z,4.32
2023-05-23T12:00:59.479Z,4.20
2023-05-23T12:03:27.522Z,4.62
2023-05-23T12:05:56.388Z,4.22
2023-05-23T12:08:25.273Z,4.30
2023-05-23T12:10:57.312Z,4.82
2023-05-23T12:13:26.234Z,4.32
2023-05-23T12:15:56.172Z,4.57
2023-05-23T12:18:24.277Z,4.35
2023-05-23T12:20:52.203Z,4.18
2023-05-23T12:23:23.479Z,4.18
2023-05-23T12:25:52.394Z,4.25
2023-05-23T12:28:21.143Z,4.05
2023-05-23T12:30:49.534Z,3.90
2023-05-23T12:33:18.745Z,4.45
2023-05-23T12:35:46.774Z,4.07
2023-05-23T12:38:17.611Z,4.30
2023-05-23T12:40:45.104Z,4.03
2023-05-23T12:43:15.586Z,3.72
2023-05-23T12:45:43.524Z,4.07
2023-05-23T12:48:11.414Z,4.43
2023-05-23T12:50:39.275Z,4.12
2023-05-23T12:53:06.714Z,3.80
2023-05-23T12:55:34.113Z,4.60
2023-05-23T12:58:01.835Z,4.03
2023-05-23T13:00:29.317Z,4.40
2023-05-23T13:02:57.177Z,4.00
2023-05-23T13:05:25.059Z,3.78
2023-05-23T13:07:52.519Z,3.78
2023-05-23T13:10:20.257Z,3.78
2023-05-23T13:12:47.987Z,3.25
2023-05-23T13:15:15.692Z,3.95
2023-05-23T13:17:47.845Z,3.67
2023-05-23T13:20:17.811Z,3.35
2023-05-23T13:22:45.360Z,3.40
2023-05-23T13:25:12.837Z,3.37
2023-05-23T13:27:40.639Z,2.92
2023-05-23T13:30:08.678Z,3.25
2023-05-23T13:32:36.150Z,3.08
2023-05-23T13:35:04.056Z,2.75
2023-05-23T13:37:31.543Z,3.30
2023-05-23T13:39:58.943Z,3.30
2023-05-23T13:42:26.994Z,2.62
2023-05-23T13:44:54.414Z,2.75
2023-05-23T13:47:21.950Z,3.58
2023-05-23T13:49:50.283Z,4.00
2023-05-23T13:52:17.720Z,3.60
2023-05-23T13:54:46.256Z,3.80
2023-05-23T13:57:13.985Z,3.08
2023-05-23T13:59:41.402Z,3.50
2023-05-23T14:02:09.008Z,3.22
2023-05-23T14:04:37.280Z,3.05
2023-05-23T14:07:04.765Z,3.22
2023-05-23T14:09:32.260Z,2.90
2023-05-23T14:12:00.049Z,3.00
2023-05-23T14:14:27.486Z,2.83
2023-05-23T14:16:55.005Z,3.85
2023-05-23T14:19:22.788Z,3.25
2023-05-23T14:21:50.783Z,3.45
2023-05-23T14:24:18.609Z,3.67
2023-05-23T14:26:47.151Z,3.30
2023-05-23T14:29:14.600Z,3.58
2023-05-23T14:31:42.657Z,3.42
2023-05-23T14:34:11.432Z,3.60
2023-05-23T14:36:39.093Z,4.00
2023-05-23T14:39:09.108Z,3.70
2023-05-23T14:41:38.753Z,3.55
2023-05-23T14:44:06.291Z,3.75
2023-05-23T14:46:33.869Z,3.87
2023-05-23T14:49:01.609Z,3.87
2023-05-23T14:51:44.879Z,3.42
2023-05-23T14:54:16.597Z,3.20
2023-05-23T14:56:44.312Z,3.55
2023-05-23T14:59:11.762Z,3.53
2023-05-23T15:01:40.647Z,3.70
2023-05-23T15:04:12.115Z,3.70
2023-05-23T15:06:41.682Z,4.07
2023-05-23T15:09:10.668Z,3.65
2023-05-23T15:11:38.917Z,3.33
2023-05-23T15:14:08.065Z,3.72
2023-05-23T15:16:37.118Z,4.00
2023-05-23T15:19:05.940Z,3.55
2023-05-23T15:21:33.706Z,3.70
2023-05-23T15:24:01.360Z,3.78
2023-05-23T15:26:29.027Z,3.28
2023-05-23T15:28:58.080Z,3.60
2023-05-23T15:31:26.212Z,3.95
2023-05-23T15:33:53.785Z,4.37
2023-05-23T15:36:21.458Z,3.25
2023-05-23T15:38:48.920Z,3.20
2023-05-23T15:41:16.956Z,3.10
2023-05-23T15:43:44.659Z,3.15
2023-05-23T15:46:12.224Z,3.58
2023-05-23T15:48:41.930Z,3.45
2023-05-23T15:51:09.678Z,3.67
2023-05-23T15:53:43.295Z,3.80
2023-05-23T15:56:24.822Z,2.92
2023-05-23T15:58:52.281Z,3.17
2023-05-23T16:01:20.644Z,3.60
2023-05-23T16:03:48.753Z,3.22
2023-05-23T16:06:16.315Z,3.62
2023-05-23T16:08:43.856Z,3.30
2023-05-23T16:11:11.574Z,3.75
2023-05-23T16:13:39.186Z,3.17
2023-05-23T16:16:06.864Z,3.60
2023-05-23T16:18:34.625Z,3.20
2023-05-23T16:21:02.067Z,3.60
2023-05-23T16:23:29.564Z,4.05
2023-05-23T16:25:57.395Z,3.62
2023-05-23T16:28:27.129Z,3.78
2023-05-23T16:30:55.733Z,3.45
2023-05-23T16:33:23.489Z,3.55
2023-05-23T16:35:50.991Z,3.30
2023-05-23T16:38:18.508Z,3.70
2023-05-23T16:40:46.254Z,4.75
2023-05-23T16:43:13.682Z,4.55
2023-05-23T16:45:42.122Z,3.50
2023-05-23T16:48:10.073Z,3.80
2023-05-23T16:50:37.488Z,4.25
2023-05-23T16:53:04.877Z,4.55
2023-05-23T16:55:32.624Z,3.72
2023-05-23T16:58:00.065Z,4.20
2023-05-23T17:00:27.556Z,3.67
2023-05-23T17:02:55.344Z,4.62
2023-05-23T17:05:22.855Z,3.92
2023-05-23T17:07:50.373Z,4.53
2023-05-23T17:10:20.208Z,4.75
2023-05-23T17:12:47.986Z,4.57
2023-05-23T17:15:16.793Z,4.53
2023-05-23T17:17:44.555Z,4.65
2023-05-23T17:20:11.986Z,5.25
2023-05-23T17:22:39.427Z,4.50
2023-05-23T17:25:07.483Z,5.07
2023-05-23T17:27:34.949Z,4.95
2023-05-23T17:30:05.071Z,5.68
2023-05-23T17:32:33.002Z,5.35
2023-05-23T17:35:00.544Z,5.57
2023-05-23T17:37:27.992Z,5.07
2023-05-23T17:39:57.642Z,5.43
2023-05-23T17:42:25.461Z,5.78
2023-05-23T17:44:55.188Z,5.22
2023-05-23T17:47:22.947Z,5.75
2023-05-23T17:49:50.586Z,5.72
2023-05-23T17:52:18.026Z,6.30
2023-05-23T17:54:45.860Z,5.60
2023-05-23T17:57:13.948Z,5.93
2023-05-23T17:59:41.525Z,6.30
2023-05-23T18:02:10.715Z,5.78
2023-05-23T18:04:38.559Z,6.18
2023-05-23T18:07:06.046Z,6.30
2023-05-23T18:09:33.463Z,6.30
2023-05-23T18:12:01.356Z,6.40
2023-05-23T18:14:28.799Z,6.78
2023-05-23T18:16:56.312Z,6.35
2023-05-23T18:19:24.128Z,6.70
2023-05-23T18:21:51.572Z,7.30
2023-05-23T18:24:19.076Z,6.37
2023-05-23T18:26:47.849Z,7.53
2023-05-23T18:29:15.691Z,7.25
2023-05-23T18:31:44.807Z,7.55
2023-05-23T18:34:13.951Z,7.87
2023-05-23T18:36:41.423Z,7.18
2023-05-23T18:39:10.017Z,8.32
2023-05-23T18:41:38.923Z,8.25
2023-05-23T18:44:06.467Z,6.57
2023-05-23T18:46:34.354Z,6.78
2023-05-23T18:49:02.323Z,7.22
2023-05-23T18:51:29.793Z,6.95
2023-05-23T18:54:04.385Z,6.50
2023-05-23T18:56:33.167Z,5.53
2023-05-23T18:59:00.558Z,5.90
2023-05-23T19:01:28.090Z,5.53
2023-05-23T19:03:57.875Z,4.87
2023-05-23T19:06:26.794Z,4.85
2023-05-23T19:08:54.356Z,4.95
2023-05-23T19:11:22.660Z,5.18
2023-05-23T19:13:50.290Z,4.85
2023-05-23T19:16:17.767Z,4.35
2023-05-23T19:18:45.782Z,4.32
2023-05-23T19:21:13.474Z,4.30
2023-05-23T19:23:40.969Z,4.80
2023-05-23T19:26:10.276Z,4.15
2023-05-23T19:28:37.768Z,4.43
2023-05-23T19:31:05.485Z,4.10
2023-05-23T19:33:33.300Z,3.95
2023-05-23T19:36:00.988Z,4.28
2023-05-23T19:38:28.373Z,4.80
2023-05-23T19:40:56.094Z,4.70
2023-05-23T19:43:23.634Z,3.85
2023-05-23T19:45:51.375Z,4.00
2023-05-23T19:48:19.090Z,4.20
2023-05-23T19:50:47.600Z,3.78
2023-05-23T19:53:15.135Z,3.60
2023-05-23T19:55:42.827Z,3.72
2023-05-23T19:58:10.445Z,3.53
2023-05-23T20:00:38.103Z,4.15
2023-05-23T20:03:06.887Z,3.87
2023-05-23T20:05:34.421Z,3.28
2023-05-23T20:08:02.020Z,3.67
2023-05-23T20:10:29.716Z,3.55
2023-05-23T20:12:57.221Z,3.90
2023-05-23T20:15:38.689Z,3.95
2023-05-23T20:18:08.310Z,3.70
2023-05-23T20:20:36.078Z,3.80
2023-05-23T20:23:03.844Z,3.90
2023-05-23T20:25:31.568Z,4.03
2023-05-23T20:27:59.055Z,4.00
2023-05-23T20:30:26.656Z,4.05
2023-05-23T20:32:54.607Z,3.90
2023-05-23T20:35:22.916Z,4.15
2023-05-23T20:37:57.074Z,3.87
2023-05-23T20:40:25.851Z,3.87
2023-05-23T20:42:53.511Z,4.20
2023-05-23T20:45:21.770Z,4.37
2023-05-23T20:47:49.604Z,3.72
2023-05-23T20:50:19.170Z,4.30
2023-05-23T20:52:46.615Z,4.10
2023-05-23T20:55:14.946Z,4.15
2023-05-23T20:57:42.697Z,4.28
2023-05-23T21:00:13.701Z,3.80
2023-05-23T21:02:42.380Z,4.20
2023-05-23T21:05:10.977Z,4.37
2023-05-23T21:07:38.762Z,4.47
2023-05-23T21:10:06.834Z,4.12
2023-05-23T21:12:34.300Z,3.80
2023-05-23T21:15:01.869Z,4.10
2023-05-23T21:17:29.800Z,4.50
2023-05-23T21:19:57.281Z,4.05
2023-05-23T21:22:24.740Z,4.57
2023-05-23T21:24:52.466Z,4.37
2023-05-23T21:27:19.946Z,4.45
2023-05-23T21:29:47.533Z,4.12
2023-05-23T21:32:15.299Z,3.87
2023-05-23T21:34:42.687Z,4.20
2023-05-23T21:37:10.165Z,3.95
2023-05-23T21:39:50.649Z,4.25
2023-05-23T21:42:19.746Z,4.25
2023-05-23T21:44:47.472Z,4.32
2023-05-23T21:47:14.971Z,4.60
2023-05-23T21:49:42.710Z,5.60
2023-05-23T21:52:10.372Z,5.15
2023-05-23T21:54:37.833Z,5.60
2023-05-23T21:57:05.290Z,5.15
2023-05-23T21:59:32.958Z,5.55
2023-05-23T22:02:01.024Z,5.45
2023-05-23T22:04:28.899Z,5.65
2023-05-23T22:06:56.587Z,5.45
2023-05-23T22:09:24.090Z,4.47
2023-05-23T22:11:52.056Z,4.97
2023-05-23T22:14:19.524Z,4.72
2023-05-23T22:16:47.139Z,4.87
2023-05-23T22:19:18.084Z,5.00
2023-05-23T22:21:45.723Z,5.12
2023-05-23T22:24:13.225Z,4.87
2023-05-23T22:26:41.155Z,5.90
2023-05-23T22:29:08.561Z,5.18
2023-05-23T22:31:36.095Z,5.03
2023-05-23T22:34:03.978Z,4.93
2023-05-23T22:36:33.470Z,5.75
2023-05-23T22:39:02.444Z,5.62
2023-05-23T22:41:30.121Z,5.18
2023-05-23T22:43:57.587Z,5.85
2023-05-23T22:46:25.033Z,4.75
2023-05-23T22:48:55.134Z,5.90
2023-05-23T22:51:22.625Z,5.30
2023-05-23T22:53:50.171Z,5.18
2023-05-23T22:56:17.900Z,5.65
2023-05-23T22:58:45.282Z,6.15
2023-05-23T23:01:12.771Z,6.28
2023-05-23T23:03:40.776Z,5.90
2023-05-23T23:06:09.466Z,5.55
2023-05-23T23:08:37.765Z,5.80
2023-05-23T23:11:05.479Z,5.55
2023-05-23T23:13:34.079Z,5.87
2023-05-23T23:16:01.502Z,5.75
2023-05-23T23:18:29.443Z,5.25
2023-05-23T23:20:56.826Z,4.82
2023-05-23T23:23:24.256Z,5.62
2023-05-23T23:25:52.257Z,5.05
2023-05-23T23:28:20.824Z,6.45
2023-05-23T23:30:48.356Z,5.90
2023-05-23T23:33:18.162Z,6.90
2023-05-23T23:35:48.596Z,6.82
2023-05-23T23:38:16.547Z,6.80
2023-05-23T23:40:45.669Z,7.15
2023-05-23T23:43:13.594Z,7.20
2023-05-23T23:45:41.278Z,7.45
2023-05-23T23:48:08.781Z,7.70
2023-05-23T23:50:36.285Z,7.70
2023-05-23T23:53:04.609Z,7.60
2023-05-23T23:55:32.071Z,6.78
2023-05-23T23:57:59.522Z,6.80
